createdAt,value
2017-11-30T00:00:07.017Z,50.40
2017-11-30T00:01:07.476Z,52.00
2017-11-30T00:02:07.501Z,51.30
2017-11-30T00:03:07.032Z,53.50
2017-11-30T00:04:06.895Z,53.50
2017-11-30T00:05:07.193Z,53.40
2017-11-30T00:06:07.920Z,55.10
2017-11-30T00:07:07.153Z,52.80
2017-11-30T00:08:07.640Z,55.80
2017-11-30T00:09:07.031Z,52.30
2017-11-30T00:10:07.382Z,55.60
2017-11-30T00:11:06.687Z,54.10
2017-11-30T00:12:06.949Z,56.40
2017-11-30T00:13:07.250Z,52.40
2017-11-30T00:14:07.485Z,53.20
2017-11-30T00:15:06.764Z,56.70
2017-11-30T00:16:07.061Z,59.10
2017-11-30T00:17:07.251Z,58.10
2017-11-30T00:18:07.513Z,56.90
2017-11-30T00:19:06.659Z,57.00
2017-11-30T00:20:07.101Z,56.30
2017-11-30T00:21:07.440Z,58.70
2017-11-30T00:22:06.635Z,58.80
2017-11-30T00:23:06.915Z,58.30
2017-11-30T00:24:07.156Z,55.80
2017-11-30T00:25:07.617Z,58.30
2017-11-30T00:26:06.857Z,58.20
2017-11-30T00:27:07.154Z,56.80
2017-11-30T00:27:43.916Z,59.30
2017-11-30T00:28:44.249Z,58.20
2017-11-30T00:29:44.715Z,60.50
2017-11-30T00:30:43.971Z,61.40
2017-11-30T00:31:44.281Z,60.00
2017-11-30T00:32:44.498Z,58.60
2017-11-30T00:33:44.987Z,60.60
2017-11-30T00:34:44.236Z,61.30
2017-11-30T00:35:45.017Z,60.50
2017-11-30T00:36:44.210Z,60.20
2017-11-30T00:37:44.433Z,60.70
2017-11-30T00:38:44.895Z,59.60
2017-11-30T00:39:44.444Z,61.60
2017-11-30T00:40:44.007Z,61.30
2017-11-30T00:41:44.727Z,59.80
2017-11-30T00:42:44.026Z,58.20
2017-11-30T00:43:44.274Z,58.50
2017-11-30T00:44:44.509Z,58.30
2017-11-30T00:45:44.817Z,60.10
2017-11-30T00:46:44.158Z,61.00
2017-11-30T00:47:44.479Z,55.70
2017-11-30T00:48:44.685Z,59.50
2017-11-30T00:49:44.026Z,56.80
2017-11-30T00:50:44.255Z,58.70
2017-11-30T00:51:44.460Z,58.70
2017-11-30T00:52:44.806Z,59.70
2017-11-30T00:53:44.053Z,60.10
2017-11-30T00:54:44.612Z,60.10
2017-11-30T00:55:44.917Z,55.60
2017-11-30T00:56:44.126Z,56.60
2017-11-30T00:57:44.611Z,56.80
2017-11-30T00:58:44.867Z,56.20
2017-11-30T00:59:44.222Z,54.90
2017-11-30T01:00:44.575Z,56.30
2017-11-30T01:01:44.762Z,57.20
2017-11-30T01:02:44.022Z,59.90
2017-11-30T01:03:44.209Z,58.10
2017-11-30T01:04:44.475Z,54.80
2017-11-30T01:05:44.024Z,57.00
2017-11-30T01:06:44.255Z,55.40
2017-11-30T01:07:44.775Z,56.70
2017-11-30T01:08:43.998Z,56.10
2017-11-30T01:09:44.222Z,55.60
2017-11-30T01:10:44.476Z,56.10
2017-11-30T01:11:44.865Z,59.50
2017-11-30T01:12:44.113Z,60.80
2017-11-30T01:13:44.328Z,57.80
2017-11-30T01:14:44.566Z,58.80
2017-11-30T01:15:44.522Z,62.90
2017-11-30T01:16:44.849Z,60.60
2017-11-30T01:17:44.093Z,57.70
2017-11-30T01:18:44.499Z,58.60
2017-11-30T01:19:44.761Z,59.30
2017-11-30T01:20:44.030Z,61.50
2017-11-30T01:21:44.229Z,60.70
2017-11-30T01:22:44.395Z,60.90
2017-11-30T01:23:44.612Z,58.80
2017-11-30T01:24:44.904Z,62.80
2017-11-30T01:25:44.270Z,60.30
2017-11-30T01:26:44.731Z,59.50
2017-11-30T01:27:43.974Z,60.10
2017-11-30T01:28:44.234Z,60.30
2017-11-30T01:29:44.571Z,60.30
2017-11-30T01:30:45.025Z,61.70
2017-11-30T01:31:44.271Z,61.40
2017-11-30T01:32:44.547Z,61.80
2017-11-30T01:33:44.810Z,60.70
2017-11-30T01:34:44.062Z,61.80
2017-11-30T01:35:44.289Z,60.50
2017-11-30T01:36:44.566Z,60.40
2017-11-30T01:37:44.054Z,60.30
2017-11-30T01:38:44.409Z,61.70
2017-11-30T01:39:44.622Z,63.10
2017-11-30T01:40:44.821Z,66.20
2017-11-30T01:41:44.051Z,62.50
2017-11-30T01:42:44.803Z,61.50
2017-11-30T01:43:44.847Z,62.30
2017-11-30T01:44:44.102Z,60.40
2017-11-30T01:45:44.966Z,62.40
2017-11-30T01:46:44.302Z,64.10
2017-11-30T01:47:44.564Z,61.40
2017-11-30T01:48:44.050Z,61.00
2017-11-30T01:49:44.271Z,64.50
2017-11-30T01:50:45.460Z,61.20
2017-11-30T01:51:44.660Z,60.50
2017-11-30T01:52:43.871Z,63.80
2017-11-30T01:53:44.163Z,61.10
2017-11-30T01:54:44.368Z,64.40
2017-11-30T01:55:44.708Z,62.90
2017-11-30T01:56:44.087Z,61.10
2017-11-30T01:57:44.655Z,64.20
2017-11-30T01:58:43.894Z,62.40
2017-11-30T01:59:44.109Z,66.50
2017-11-30T02:00:44.449Z,64.10
2017-11-30T02:01:44.668Z,67.30
2017-11-30T02:02:44.025Z,67.10
2017-11-30T02:03:44.208Z,67.60
2017-11-30T02:04:44.445Z,67.80
2017-11-30T02:05:44.545Z,69.90
2017-11-30T02:06:44.678Z,65.70
2017-11-30T02:07:44.352Z,63.60
2017-11-30T02:08:43.900Z,64.20
2017-11-30T02:09:44.222Z,68.50
2017-11-30T02:10:44.677Z,66.00
2017-11-30T02:11:43.890Z,67.00
2017-11-30T02:12:44.222Z,65.70
2017-11-30T02:13:44.530Z,65.30
2017-11-30T02:14:44.930Z,65.10
2017-11-30T02:15:44.187Z,68.70
2017-11-30T02:16:44.390Z,68.00
2017-11-30T02:17:44.525Z,65.70
2017-11-30T02:18:44.164Z,66.00
2017-11-30T02:19:44.039Z,67.60
2017-11-30T02:20:44.241Z,65.80
2017-11-30T02:21:44.464Z,68.50
2017-11-30T02:22:44.724Z,66.20
2017-11-30T02:23:44.127Z,69.40
2017-11-30T02:24:44.089Z,72.70
2017-11-30T02:25:44.487Z,71.10
2017-11-30T02:26:43.905Z,71.00
2017-11-30T02:27:44.514Z,67.30
2017-11-30T02:28:44.685Z,65.90
2017-11-30T02:29:44.621Z,69.10
2017-11-30T02:30:44.518Z,68.80
2017-11-30T02:31:44.757Z,70.20
2017-11-30T02:32:43.941Z,73.00
2017-11-30T02:33:44.171Z,63.30
2017-11-30T02:34:44.496Z,67.60
2017-11-30T02:35:44.754Z,70.10
2017-11-30T02:36:43.979Z,72.60
2017-11-30T02:37:44.370Z,73.10
2017-11-30T02:38:44.661Z,69.80
2017-11-30T02:39:43.846Z,75.10
2017-11-30T02:40:44.046Z,74.90
2017-11-30T02:41:44.296Z,75.60
2017-11-30T02:42:44.608Z,79.00
2017-11-30T02:43:44.001Z,75.50
2017-11-30T02:44:44.289Z,76.60
2017-11-30T02:45:44.503Z,77.30
2017-11-30T02:46:43.868Z,71.90
2017-11-30T02:47:44.206Z,79.10
2017-11-30T02:48:44.544Z,78.80
2017-11-30T02:49:43.883Z,71.60
2017-11-30T02:50:44.121Z,78.10
2017-11-30T02:51:44.334Z,76.40
2017-11-30T02:52:44.875Z,77.90
2017-11-30T02:53:44.165Z,82.20
2017-11-30T02:54:44.445Z,87.10
2017-11-30T02:55:44.812Z,77.90
2017-11-30T02:56:44.087Z,82.80
2017-11-30T02:57:44.285Z,74.70
2017-11-30T02:58:44.328Z,78.50
2017-11-30T02:59:44.271Z,74.20
2017-11-30T03:00:44.486Z,81.80
2017-11-30T03:01:44.742Z,76.20
2017-11-30T03:02:43.985Z,74.60
2017-11-30T03:03:44.201Z,76.10
2017-11-30T03:04:44.634Z,76.50
2017-11-30T03:05:43.959Z,75.90
2017-11-30T03:06:44.254Z,76.00
2017-11-30T03:07:44.517Z,81.20
2017-11-30T03:08:44.761Z,78.20
2017-11-30T03:09:43.959Z,79.80
2017-11-30T03:10:44.171Z,80.40
2017-11-30T03:11:44.457Z,84.70
2017-11-30T03:12:44.758Z,85.40
2017-11-30T03:13:43.996Z,79.20
2017-11-30T03:14:44.285Z,89.90
2017-11-30T03:15:44.651Z,90.50
2017-11-30T03:16:44.169Z,83.90
2017-11-30T03:17:44.563Z,81.50
2017-11-30T03:18:44.800Z,86.10
2017-11-30T03:19:44.063Z,89.20
2017-11-30T03:20:44.334Z,87.60
2017-11-30T03:21:44.509Z,85.50
2017-11-30T03:22:44.656Z,86.20
2017-11-30T03:23:43.874Z,80.70
2017-11-30T03:24:44.105Z,94.60
2017-11-30T03:25:44.032Z,82.10
2017-11-30T03:26:44.208Z,82.70
2017-11-30T03:27:44.445Z,84.20
2017-11-30T03:28:44.604Z,83.20
2017-11-30T03:29:44.742Z,82.20
2017-11-30T03:30:44.005Z,82.40
2017-11-30T03:31:44.717Z,82.10
2017-11-30T03:32:43.967Z,77.80
2017-11-30T03:33:44.281Z,80.80
2017-11-30T03:34:44.464Z,80.30
2017-11-30T03:35:44.703Z,84.50
2017-11-30T03:36:43.902Z,81.80
2017-11-30T03:37:44.191Z,83.50
2017-11-30T03:38:43.825Z,84.00
2017-11-30T03:39:44.064Z,85.30
2017-11-30T03:40:44.670Z,86.90
2017-11-30T03:41:43.883Z,83.40
2017-11-30T03:42:44.153Z,83.10
2017-11-30T03:43:44.367Z,85.60
2017-11-30T03:44:44.108Z,82.90
2017-11-30T03:45:44.571Z,89.00
2017-11-30T03:46:45.070Z,81.10
2017-11-30T03:47:44.384Z,84.90
2017-11-30T03:48:44.544Z,79.00
2017-11-30T03:49:44.360Z,83.90
2017-11-30T03:50:44.302Z,89.40
2017-11-30T03:51:44.595Z,87.70
2017-11-30T03:52:44.857Z,91.10
2017-11-30T03:53:44.085Z,83.00
2017-11-30T03:54:44.494Z,84.20
2017-11-30T03:55:44.857Z,89.90
2017-11-30T03:56:44.102Z,89.10
2017-11-30T03:57:44.237Z,83.90
2017-11-30T03:58:44.412Z,84.70
2017-11-30T03:59:44.546Z,85.00
2017-11-30T04:00:44.882Z,86.10
2017-11-30T04:01:44.091Z,88.60
2017-11-30T04:02:44.334Z,86.80
2017-11-30T04:03:44.508Z,86.40
2017-11-30T04:04:44.691Z,82.20
2017-11-30T04:05:44.071Z,85.30
2017-11-30T04:06:44.309Z,80.80
2017-11-30T04:07:44.671Z,80.10
2017-11-30T04:08:43.952Z,85.00
2017-11-30T04:09:44.150Z,89.80
2017-11-30T04:10:44.346Z,84.30
2017-11-30T04:11:44.536Z,76.50
2017-11-30T04:12:44.777Z,81.90
2017-11-30T04:13:43.956Z,84.40
2017-11-30T04:14:44.192Z,91.50
2017-11-30T04:15:44.408Z,87.80
2017-11-30T04:16:44.650Z,85.40
2017-11-30T04:17:44.799Z,86.50
2017-11-30T04:18:43.993Z,85.90
2017-11-30T04:19:44.225Z,82.30
2017-11-30T04:20:44.488Z,87.70
2017-11-30T04:21:44.650Z,83.60
2017-11-30T04:22:43.938Z,84.60
2017-11-30T04:23:44.147Z,84.60
2017-11-30T04:24:44.270Z,83.90
2017-11-30T04:25:44.453Z,84.20
2017-11-30T04:26:44.621Z,84.50
2017-11-30T04:27:43.866Z,86.20
2017-11-30T04:28:44.037Z,87.00
2017-11-30T04:29:44.239Z,89.20
2017-11-30T04:30:44.438Z,88.20
2017-11-30T04:31:44.661Z,82.40
2017-11-30T04:32:44.004Z,80.40
2017-11-30T04:33:44.164Z,76.70
2017-11-30T04:34:44.418Z,82.30
2017-11-30T04:35:44.649Z,81.80
2017-11-30T04:36:44.797Z,81.30
2017-11-30T04:37:44.728Z,79.50
2017-11-30T04:38:43.964Z,82.00
2017-11-30T04:39:44.239Z,76.90
2017-11-30T04:40:44.510Z,80.00
2017-11-30T04:41:44.670Z,77.80
2017-11-30T04:42:43.948Z,79.00
2017-11-30T04:43:44.262Z,74.70
2017-11-30T04:44:44.636Z,74.90
2017-11-30T04:45:43.921Z,76.20
2017-11-30T04:46:44.075Z,75.50
2017-11-30T04:47:44.274Z,73.00
2017-11-30T04:48:44.551Z,73.60
2017-11-30T04:49:44.762Z,75.90
2017-11-30T04:50:44.103Z,75.80
2017-11-30T04:51:44.402Z,72.60
2017-11-30T04:52:44.623Z,69.00
2017-11-30T04:53:43.824Z,66.10
2017-11-30T04:54:44.050Z,72.90
2017-11-30T04:55:44.382Z,75.10
2017-11-30T04:56:54.454Z,72.50
2017-11-30T04:57:44.720Z,69.00
2017-11-30T04:58:43.844Z,71.50
2017-11-30T04:59:44.043Z,68.40
2017-11-30T05:00:44.451Z,69.00
2017-11-30T05:01:44.495Z,72.40
2017-11-30T05:02:44.807Z,73.60
2017-11-30T05:03:43.981Z,74.30
2017-11-30T05:04:44.204Z,75.30
2017-11-30T05:05:44.454Z,74.50
2017-11-30T05:06:44.637Z,70.90
2017-11-30T05:07:43.856Z,69.70
2017-11-30T05:08:44.098Z,67.80
2017-11-30T05:09:44.351Z,72.60
2017-11-30T05:10:44.598Z,71.60
2017-11-30T05:11:43.825Z,74.00
2017-11-30T05:12:44.059Z,73.40
2017-11-30T05:13:44.610Z,66.20
2017-11-30T05:14:43.858Z,67.60
2017-11-30T05:15:44.135Z,73.10
2017-11-30T05:16:44.625Z,71.20
2017-11-30T05:17:43.788Z,66.50
2017-11-30T05:18:44.048Z,68.30
2017-11-30T05:19:44.458Z,65.70
2017-11-30T05:20:44.654Z,67.20
2017-11-30T05:21:44.107Z,69.90
2017-11-30T05:22:44.551Z,70.70
2017-11-30T05:23:44.825Z,71.40
2017-11-30T05:24:44.001Z,68.70
2017-11-30T05:25:44.501Z,73.20
2017-11-30T05:26:44.818Z,67.90
2017-11-30T05:27:44.083Z,69.50
2017-11-30T05:28:44.354Z,66.90
2017-11-30T05:29:44.480Z,71.40
2017-11-30T05:30:44.764Z,70.80
2017-11-30T05:31:44.265Z,69.80
2017-11-30T05:32:44.122Z,68.70
2017-11-30T05:33:45.164Z,69.70
2017-11-30T05:34:44.508Z,71.10
2017-11-30T05:35:44.694Z,65.30
2017-11-30T05:36:43.869Z,68.20
2017-11-30T05:37:44.567Z,69.00
2017-11-30T05:38:44.930Z,72.00
2017-11-30T05:39:44.346Z,74.30
2017-11-30T05:40:44.531Z,73.20
2017-11-30T05:41:43.884Z,74.30
2017-11-30T05:42:44.276Z,74.70
2017-11-30T05:43:44.801Z,73.10
2017-11-30T05:44:44.338Z,75.30
2017-11-30T05:45:44.459Z,74.30
2017-11-30T05:46:44.795Z,74.90
2017-11-30T05:47:44.181Z,73.80
2017-11-30T05:48:44.505Z,71.50
2017-11-30T05:49:45.817Z,75.10
2017-11-30T05:50:44.523Z,76.50
2017-11-30T05:51:44.055Z,76.60
2017-11-30T05:52:44.524Z,73.20
2017-11-30T05:53:47.463Z,70.90
2017-11-30T05:54:45.335Z,72.50
2017-11-30T05:55:44.795Z,73.60
2017-11-30T05:56:44.111Z,73.10
2017-11-30T05:57:46.168Z,78.50
2017-11-30T05:58:44.484Z,70.00
2017-11-30T05:59:44.141Z,67.50
2017-11-30T06:00:44.290Z,67.50
2017-11-30T06:01:44.267Z,70.00
2017-11-30T06:02:44.637Z,75.70
2017-11-30T06:03:43.838Z,75.90
2017-11-30T06:04:44.187Z,74.80
2017-11-30T06:05:44.427Z,77.40
2017-11-30T06:06:44.727Z,71.80
2017-11-30T06:07:44.734Z,73.80
2017-11-30T06:08:43.991Z,72.20
2017-11-30T06:09:44.347Z,71.70
2017-11-30T06:10:44.598Z,73.90
2017-11-30T06:11:44.004Z,78.50
2017-11-30T06:12:44.176Z,73.80
2017-11-30T06:13:44.847Z,75.40
2017-11-30T06:14:44.345Z,76.80
2017-11-30T06:15:44.797Z,75.90
2017-11-30T06:16:43.953Z,74.80
2017-11-30T06:17:44.120Z,68.60
2017-11-30T06:18:44.339Z,78.50
2017-11-30T06:19:44.717Z,68.80
2017-11-30T06:20:43.953Z,71.90
2017-11-30T06:21:44.360Z,71.30
2017-11-30T06:22:44.469Z,75.80
2017-11-30T06:23:44.703Z,72.50
2017-11-30T06:24:44.183Z,73.10
2017-11-30T06:25:44.440Z,72.20
2017-11-30T06:26:44.710Z,69.90
2017-11-30T06:27:44.178Z,67.30
2017-11-30T06:28:44.369Z,74.10
2017-11-30T06:29:44.645Z,71.70
2017-11-30T06:30:43.915Z,75.90
2017-11-30T06:31:44.741Z,79.90
2017-11-30T06:32:44.134Z,85.90
2017-11-30T06:33:44.295Z,85.20
2017-11-30T06:34:44.863Z,79.10
2017-11-30T06:35:44.160Z,80.40
2017-11-30T06:36:44.442Z,74.00
2017-11-30T06:37:44.550Z,79.60
2017-11-30T06:38:43.790Z,75.50
2017-11-30T06:39:44.163Z,79.30
2017-11-30T06:40:44.381Z,86.30
2017-11-30T06:41:44.618Z,84.70
2017-11-30T06:42:43.940Z,81.90
2017-11-30T06:43:44.281Z,76.80
2017-11-30T06:44:44.444Z,78.10
2017-11-30T06:45:43.927Z,77.00
2017-11-30T06:46:44.772Z,82.30
2017-11-30T06:47:44.049Z,86.10
2017-11-30T06:48:44.309Z,89.00
2017-11-30T06:49:44.553Z,86.40
2017-11-30T06:50:44.200Z,82.70
2017-11-30T06:51:44.465Z,82.20
2017-11-30T06:52:44.500Z,77.30
2017-11-30T06:53:44.854Z,82.90
2017-11-30T06:54:44.842Z,94.60
2017-11-30T06:55:45.216Z,78.60
2017-11-30T06:56:44.747Z,83.50
2017-11-30T06:57:44.077Z,87.80
2017-11-30T06:58:44.365Z,81.70
2017-11-30T06:59:44.981Z,87.20
2017-11-30T07:00:44.558Z,91.00
2017-11-30T07:01:45.283Z,87.50
2017-11-30T07:02:44.995Z,82.60
2017-11-30T07:03:44.401Z,86.80
2017-11-30T07:04:44.698Z,86.10
2017-11-30T07:05:43.964Z,92.00
2017-11-30T07:06:44.521Z,87.50
2017-11-30T07:07:44.820Z,81.80
2017-11-30T07:08:44.258Z,85.00
2017-11-30T07:09:44.571Z,85.10
2017-11-30T07:10:44.208Z,83.90
2017-11-30T07:11:45.095Z,84.30
2017-11-30T07:12:44.743Z,79.20
2017-11-30T07:13:44.122Z,86.30
2017-11-30T07:14:44.633Z,80.20
2017-11-30T07:15:44.051Z,87.50
2017-11-30T07:16:44.410Z,73.50
2017-11-30T07:17:44.792Z,82.40
2017-11-30T07:18:44.047Z,92.20
2017-11-30T07:19:44.552Z,87.00
2017-11-30T07:20:44.844Z,89.20
2017-11-30T07:21:44.276Z,82.80
2017-11-30T07:22:45.332Z,91.70
2017-11-30T07:23:44.598Z,84.90
2017-11-30T07:24:44.889Z,81.40
2017-11-30T07:25:44.292Z,89.90
2017-11-30T07:26:44.642Z,82.60
2017-11-30T07:27:45.317Z,81.10
2017-11-30T07:28:44.693Z,82.80
2017-11-30T07:29:44.013Z,86.30
2017-11-30T07:30:44.270Z,88.80
2017-11-30T07:31:44.626Z,69.10
2017-11-30T07:32:44.182Z,81.10
2017-11-30T07:33:44.858Z,79.00
2017-11-30T07:34:44.315Z,82.30
2017-11-30T07:35:44.812Z,92.00
2017-11-30T07:36:44.335Z,79.40
2017-11-30T07:37:44.694Z,74.60
2017-11-30T07:38:44.185Z,73.80
2017-11-30T07:39:44.585Z,79.20
2017-11-30T07:40:44.871Z,77.00
2017-11-30T07:41:44.314Z,76.10
2017-11-30T07:42:44.692Z,75.70
2017-11-30T07:43:44.012Z,84.60
2017-11-30T07:44:44.799Z,84.40
2017-11-30T07:45:44.147Z,85.30
2017-11-30T07:46:44.477Z,89.70
2017-11-30T07:47:44.923Z,84.00
2017-11-30T07:48:44.287Z,85.30
2017-11-30T07:49:45.069Z,81.30
2017-11-30T07:50:44.409Z,79.50
2017-11-30T07:51:44.813Z,77.80
2017-11-30T07:52:44.146Z,73.50
2017-11-30T07:53:44.460Z,74.90
2017-11-30T07:54:44.972Z,72.60
2017-11-30T07:55:44.349Z,74.10
2017-11-30T07:56:44.745Z,76.80
2017-11-30T07:57:44.171Z,76.30
2017-11-30T07:58:44.489Z,80.10
2017-11-30T07:59:44.951Z,70.90
2017-11-30T08:00:44.394Z,63.50
2017-11-30T08:01:44.302Z,65.10
2017-11-30T08:02:44.979Z,67.50
2017-11-30T08:03:44.468Z,68.50
2017-11-30T08:04:45.188Z,72.50
2017-11-30T08:05:44.708Z,71.50
2017-11-30T08:06:44.153Z,75.90
2017-11-30T08:07:44.660Z,69.60
2017-11-30T08:08:44.759Z,70.00
2017-11-30T08:09:44.574Z,72.00
2017-11-30T08:10:43.494Z,70.00
2017-11-30T08:11:44.069Z,72.40
2017-11-30T08:12:43.728Z,66.80
2017-11-30T08:13:43.717Z,75.60
2017-11-30T08:14:43.611Z,67.00
2017-11-30T08:15:43.428Z,63.30
2017-11-30T08:16:44.986Z,59.00
2017-11-30T08:17:43.598Z,58.40
2017-11-30T08:18:44.965Z,64.60
2017-11-30T08:19:43.509Z,67.70
2017-11-30T08:20:44.243Z,64.60
2017-11-30T08:21:43.828Z,64.30
2017-11-30T08:22:43.377Z,63.80
2017-11-30T08:23:44.700Z,69.50
2017-11-30T08:24:43.248Z,69.70
2017-11-30T08:25:44.618Z,60.90
2017-11-30T08:26:44.100Z,66.10
2017-11-30T08:27:44.609Z,65.60
2017-11-30T08:28:44.206Z,64.70
2017-11-30T08:29:43.783Z,63.30
2017-11-30T08:30:44.177Z,69.20
2017-11-30T08:31:43.758Z,64.80
2017-11-30T08:32:43.301Z,63.40
2017-11-30T08:33:44.730Z,61.90
2017-11-30T08:34:43.493Z,65.40
2017-11-30T08:35:44.089Z,69.40
2017-11-30T08:36:44.482Z,69.60
2017-11-30T08:37:44.823Z,66.00
2017-11-30T08:38:44.267Z,67.30
2017-11-30T08:39:43.534Z,63.70
2017-11-30T08:40:44.949Z,64.70
2017-11-30T08:41:43.478Z,61.80
2017-11-30T08:42:44.099Z,65.30
2017-11-30T08:43:44.597Z,65.80
2017-11-30T08:44:44.123Z,66.80
2017-11-30T08:45:44.514Z,64.90
2017-11-30T08:46:44.127Z,60.70
2017-11-30T08:47:43.830Z,58.10
2017-11-30T08:48:43.406Z,61.70
2017-11-30T08:49:44.825Z,59.40
2017-11-30T08:50:43.497Z,58.40
2017-11-30T08:51:45.065Z,58.20
2017-11-30T08:52:44.471Z,56.60
2017-11-30T08:53:45.001Z,55.50
2017-11-30T08:54:43.638Z,54.80
2017-11-30T08:55:42.667Z,55.20
2017-11-30T08:56:42.411Z,54.50
2017-11-30T08:57:43.763Z,55.10
2017-11-30T08:58:42.779Z,49.30
2017-11-30T08:59:42.654Z,49.30
2017-11-30T09:00:42.844Z,47.60
2017-11-30T09:01:42.889Z,50.30
2017-11-30T09:02:43.073Z,47.00
2017-11-30T09:03:43.477Z,47.70
2017-11-30T09:04:42.908Z,47.00
2017-11-30T09:05:43.155Z,47.50
2017-11-30T09:06:43.069Z,43.30
2017-11-30T09:07:43.172Z,44.40
2017-11-30T09:08:43.267Z,41.60
2017-11-30T09:09:43.379Z,44.40
2017-11-30T09:10:44.763Z,42.90
2017-11-30T09:11:43.353Z,40.20
2017-11-30T09:12:44.762Z,42.80
2017-11-30T09:13:44.290Z,43.60
2017-11-30T09:14:44.866Z,40.80
2017-11-30T09:15:43.512Z,43.80
2017-11-30T09:16:44.108Z,41.30
2017-11-30T09:17:44.520Z,43.10
2017-11-30T09:18:44.984Z,45.60
2017-11-30T09:19:44.008Z,43.10
2017-11-30T09:20:44.364Z,38.40
2017-11-30T09:21:44.871Z,36.30
2017-11-30T09:22:44.272Z,38.50
2017-11-30T09:23:44.926Z,38.10
2017-11-30T09:24:44.137Z,39.30
2017-11-30T09:25:44.537Z,38.20
2017-11-30T09:26:44.020Z,40.00
2017-11-30T09:27:44.427Z,38.90
2017-11-30T09:28:44.020Z,39.10
2017-11-30T09:29:43.667Z,37.00
2017-11-30T09:30:43.220Z,35.20
2017-11-30T09:31:44.654Z,35.10
2017-11-30T09:32:43.314Z,36.50
2017-11-30T09:33:44.796Z,36.50
2017-11-30T09:34:43.399Z,34.20
2017-11-30T09:35:44.410Z,38.10
2017-11-30T09:36:44.354Z,37.40
2017-11-30T09:37:44.818Z,35.50
2017-11-30T09:38:43.401Z,34.70
2017-11-30T09:39:44.704Z,34.80
2017-11-30T09:40:44.209Z,33.50
2017-11-30T09:41:43.726Z,31.90
2017-11-30T09:42:44.095Z,32.00
2017-11-30T09:43:43.752Z,32.20
2017-11-30T09:44:44.327Z,32.50
2017-11-30T09:45:45.253Z,30.40
2017-11-30T09:46:44.627Z,28.30
2017-11-30T09:47:45.024Z,29.20
2017-11-30T09:48:43.665Z,26.60
2017-11-30T09:49:43.378Z,26.70
2017-11-30T09:50:44.101Z,27.20
2017-11-30T09:51:44.526Z,26.90
2017-11-30T09:52:43.242Z,25.60
2017-11-30T09:53:44.753Z,25.00
2017-11-30T09:54:43.380Z,25.70
2017-11-30T09:55:43.997Z,25.10
2017-11-30T09:56:44.192Z,20.80
2017-11-30T09:57:44.651Z,22.90
2017-11-30T09:58:43.932Z,22.40
2017-11-30T09:59:44.281Z,23.30
2017-11-30T10:00:44.787Z,22.00
2017-11-30T10:01:44.180Z,24.40
2017-11-30T10:02:43.860Z,23.80
2017-11-30T10:03:43.491Z,22.80
2017-11-30T10:04:44.874Z,23.50
2017-11-30T10:05:44.256Z,23.60
2017-11-30T10:06:43.841Z,23.50
2017-11-30T10:07:43.381Z,23.90
2017-11-30T10:08:44.013Z,23.90
2017-11-30T10:09:44.344Z,21.20
2017-11-30T10:10:44.029Z,22.30
2017-11-30T10:11:44.861Z,22.60
2017-11-30T10:12:44.242Z,22.50
2017-11-30T10:13:44.637Z,22.60
2017-11-30T10:14:44.983Z,23.60
2017-11-30T10:15:43.725Z,23.00
2017-11-30T10:16:43.338Z,22.90
2017-11-30T10:17:44.719Z,25.20
2017-11-30T10:19:07.695Z,25.00
2017-11-30T10:20:10.222Z,25.40
2017-11-30T10:21:09.801Z,24.00
2017-11-30T10:22:08.921Z,25.30
2017-11-30T10:23:08.279Z,24.50
2017-11-30T10:24:08.323Z,25.40
2017-11-30T10:25:07.851Z,26.50
2017-11-30T10:26:09.136Z,25.40
2017-11-30T10:27:07.743Z,24.90
2017-11-30T10:28:09.483Z,25.90
2017-11-30T10:29:09.608Z,25.70
2017-11-30T10:30:09.786Z,25.70
2017-11-30T10:31:09.423Z,23.90
2017-11-30T10:32:08.332Z,24.80
2017-11-30T10:33:08.961Z,24.80
2017-11-30T10:34:10.753Z,26.50
2017-11-30T10:35:09.475Z,26.60
2017-11-30T10:36:09.393Z,24.80
2017-11-30T10:37:09.076Z,24.40
2017-11-30T10:38:09.164Z,22.20
2017-11-30T10:39:09.488Z,22.90
2017-11-30T10:40:08.570Z,22.20
2017-11-30T10:41:08.315Z,23.30
2017-11-30T10:42:08.628Z,23.30
2017-11-30T10:43:08.783Z,23.20
2017-11-30T10:44:09.734Z,25.30
2017-11-30T10:45:08.392Z,26.30
2017-11-30T10:46:08.359Z,25.40
2017-11-30T10:47:09.333Z,23.40
2017-11-30T10:48:09.813Z,23.80
2017-11-30T10:49:09.326Z,24.20
2017-11-30T10:50:10.338Z,24.30
2017-11-30T10:51:09.042Z,22.40
2017-11-30T10:52:08.332Z,24.80
2017-11-30T10:53:08.697Z,25.10
2017-11-30T10:54:09.140Z,24.10
2017-11-30T10:55:08.686Z,25.00
2017-11-30T10:56:09.077Z,25.20
2017-11-30T10:57:09.398Z,23.70
2017-11-30T10:58:08.062Z,24.40
2017-11-30T10:59:09.692Z,22.60
2017-11-30T11:00:08.859Z,23.50
2017-11-30T11:01:09.221Z,24.70
2017-11-30T11:02:07.808Z,26.90
2017-11-30T11:03:09.229Z,24.70
2017-11-30T11:04:08.089Z,26.80
2017-11-30T11:05:08.663Z,26.00
2017-11-30T11:06:08.262Z,26.50
2017-11-30T11:07:07.832Z,24.70
2017-11-30T11:08:09.253Z,28.40
2017-11-30T11:09:08.633Z,26.90
2017-11-30T11:10:08.160Z,29.40
2017-11-30T11:11:07.760Z,28.40
2017-11-30T11:12:09.205Z,29.40
2017-11-30T11:13:08.473Z,28.80
2017-11-30T11:14:07.965Z,29.00
2017-11-30T11:15:08.372Z,28.10
2017-11-30T11:16:09.326Z,28.60
2017-11-30T11:17:08.705Z,29.90
2017-11-30T11:18:08.300Z,30.30
2017-11-30T11:19:07.795Z,30.10
2017-11-30T11:20:08.394Z,29.50
2017-11-30T11:21:09.000Z,29.70
2017-11-30T11:22:08.453Z,29.00
2017-11-30T11:23:08.093Z,30.50
2017-11-30T11:24:07.881Z,28.90
2017-11-30T11:25:08.388Z,28.90
2017-11-30T11:26:07.880Z,30.30
2017-11-30T11:27:09.321Z,31.10
2017-11-30T11:28:07.882Z,30.90
2017-11-30T11:29:08.476Z,31.80
2017-11-30T11:30:08.715Z,33.30
2017-11-30T11:31:09.171Z,33.40
2017-11-30T11:32:07.908Z,32.70
2017-11-30T11:33:09.488Z,32.50
2017-11-30T11:34:08.450Z,31.70
2017-11-30T11:35:08.339Z,29.40
2017-11-30T11:36:09.081Z,29.70
2017-11-30T11:37:08.547Z,30.90
2017-11-30T11:38:08.245Z,31.30
2017-11-30T11:39:08.805Z,32.40
2017-11-30T11:40:09.212Z,28.60
2017-11-30T11:41:07.782Z,28.80
2017-11-30T11:42:08.395Z,29.50
2017-11-30T11:43:08.872Z,31.80
2017-11-30T11:44:08.483Z,32.30
2017-11-30T11:45:08.102Z,30.90
2017-11-30T11:46:08.587Z,31.80
2017-11-30T11:47:08.254Z,31.80
2017-11-30T11:48:08.581Z,28.70
2017-11-30T11:49:08.905Z,27.30
2017-11-30T11:50:09.258Z,31.40
2017-11-30T11:51:08.824Z,32.20
2017-11-30T11:52:08.365Z,29.70
2017-11-30T11:53:07.995Z,32.20
2017-11-30T11:54:08.644Z,32.30
2017-11-30T11:55:09.095Z,32.90
2017-11-30T11:56:08.686Z,32.20
2017-11-30T11:57:09.142Z,32.50
2017-11-30T11:58:07.786Z,32.00
2017-11-30T11:59:08.397Z,32.70
2017-11-30T12:00:08.074Z,33.00
2017-11-30T12:01:08.669Z,33.10
2017-11-30T12:02:09.059Z,33.40
2017-11-30T12:03:08.893Z,33.20
2017-11-30T12:04:09.313Z,32.80
2017-11-30T12:05:08.716Z,28.60
2017-11-30T12:06:09.167Z,31.70
2017-11-30T12:07:07.997Z,33.30
2017-11-30T12:08:09.527Z,32.00
2017-11-30T12:09:08.877Z,30.60
2017-11-30T12:10:09.301Z,29.90
2017-11-30T12:11:08.660Z,31.10
2017-11-30T12:12:09.116Z,31.20
2017-11-30T12:13:09.456Z,29.40
2017-11-30T12:14:07.797Z,28.70
2017-11-30T12:15:08.298Z,29.70
2017-11-30T12:16:08.554Z,28.80
2017-11-30T12:17:08.557Z,30.80
2017-11-30T12:18:08.894Z,31.00
2017-11-30T12:19:08.397Z,29.80
2017-11-30T12:20:08.740Z,28.30
2017-11-30T12:21:08.309Z,29.20
2017-11-30T12:22:08.210Z,27.90
2017-11-30T12:23:07.810Z,28.70
2017-11-30T12:24:08.361Z,27.40
2017-11-30T12:25:07.952Z,27.60
2017-11-30T12:26:08.488Z,27.80
2017-11-30T12:27:08.118Z,27.50
2017-11-30T12:28:08.672Z,30.60
2017-11-30T12:29:08.278Z,30.50
2017-11-30T12:30:08.661Z,29.80
2017-11-30T12:31:08.203Z,29.10
2017-11-30T12:32:07.983Z,28.70
2017-11-30T12:33:09.386Z,27.90
2017-11-30T12:34:08.835Z,28.60
2017-11-30T12:35:09.285Z,28.10
2017-11-30T12:36:08.247Z,26.70
2017-11-30T12:37:07.850Z,23.90
2017-11-30T12:38:08.446Z,27.60
2017-11-30T12:39:08.877Z,29.00
2017-11-30T12:40:09.340Z,29.80
2017-11-30T12:41:08.853Z,29.00
2017-11-30T12:42:09.324Z,27.30
2017-11-30T12:43:08.731Z,28.90
2017-11-30T12:44:08.225Z,25.00
2017-11-30T12:45:07.843Z,27.40
2017-11-30T12:46:08.349Z,29.90
2017-11-30T12:47:07.870Z,28.20
2017-11-30T12:48:09.732Z,28.60
2017-11-30T12:49:09.109Z,29.20
2017-11-30T12:50:07.686Z,27.90
2017-11-30T12:51:09.198Z,28.70
2017-11-30T12:52:08.559Z,27.60